createdAt,value
2022-09-07T00:00:49.366Z,15.00
2022-09-07T00:03:17.485Z,14.90
2022-09-07T00:05:47.301Z,12.65
2022-09-07T00:08:16.297Z,17.80
2022-09-07T00:11:02.176Z,14.55
2022-09-07T00:13:32.769Z,14.20
2022-09-07T00:16:08.259Z,12.53
2022-09-07T00:18:36.049Z,13.63
2022-09-07T00:21:08.716Z,13.13
2022-09-07T00:23:38.730Z,13.65
2022-09-07T00:26:09.475Z,12.18
2022-09-07T00:28:37.984Z,12.43
2022-09-07T00:31:11.218Z,14.35
2022-09-07T00:33:39.052Z,12.70
2022-09-07T00:36:07.051Z,13.07
2022-09-07T00:38:35.034Z,14.23
2022-09-07T00:41:03.341Z,15.07
2022-09-07T00:43:33.739Z,14.35
2022-09-07T00:46:03.086Z,12.43
2022-09-07T00:48:55.992Z,13.60
2022-09-07T00:51:34.664Z,10.32
2022-09-07T00:54:07.584Z,16.00
2022-09-07T00:56:38.144Z,12.77
2022-09-07T00:59:07.546Z,12.02
2022-09-07T01:01:36.144Z,18.25
2022-09-07T01:04:04.125Z,15.70
2022-09-07T01:06:35.356Z,10.48
2022-09-07T01:09:18.348Z,16.67
2022-09-07T01:11:51.004Z,13.60
2022-09-07T01:14:23.513Z,11.77
2022-09-07T01:17:18.425Z,14.65
2022-09-07T01:20:04.971Z,14.90
2022-09-07T01:22:47.595Z,13.73
2022-09-07T01:25:28.846Z,13.90
2022-09-07T01:28:11.308Z,14.30
2022-09-07T01:30:45.097Z,10.45
2022-09-07T01:33:21.681Z,18.10
2022-09-07T01:36:01.447Z,16.92
2022-09-07T01:38:53.143Z,15.50
2022-09-07T01:41:30.588Z,14.48
2022-09-07T01:44:25.777Z,15.75
2022-09-07T01:46:59.439Z,19.92
2022-09-07T01:49:33.731Z,14.57
2022-09-07T01:52:13.749Z,15.60
2022-09-07T01:55:13.679Z,17.08
2022-09-07T01:57:46.427Z,15.65
2022-09-07T02:00:17.866Z,16.67
2022-09-07T02:03:10.512Z,16.63
2022-09-07T02:05:47.854Z,19.60
2022-09-07T02:08:27.419Z,18.52
2022-09-07T02:11:02.017Z,13.20
2022-09-07T02:13:38.713Z,15.10
2022-09-07T02:16:09.097Z,20.95
2022-09-07T02:18:45.439Z,13.15
2022-09-07T02:21:17.767Z,14.40
2022-09-07T02:23:56.911Z,18.30
2022-09-07T02:26:27.927Z,21.35
2022-09-07T02:28:56.051Z,14.88
2022-09-07T02:31:23.880Z,17.58
2022-09-07T02:33:52.017Z,16.05
2022-09-07T02:36:23.666Z,19.25
2022-09-07T02:41:44.665Z,14.43
2022-09-07T02:44:25.864Z,15.85
2022-09-07T02:47:32.132Z,12.40
2022-09-07T02:50:20.654Z,17.30
2022-09-07T02:52:51.247Z,21.17
2022-09-07T02:55:59.115Z,17.05
2022-09-07T02:58:41.715Z,12.90
2022-09-07T03:01:18.266Z,15.20
2022-09-07T03:04:25.843Z,17.52
2022-09-07T03:07:00.532Z,16.60
2022-09-07T03:09:30.996Z,17.73
2022-09-07T03:12:02.191Z,20.80
2022-09-07T03:14:33.385Z,13.95
2022-09-07T03:17:01.799Z,17.30
2022-09-07T03:19:29.378Z,17.08
2022-09-07T03:21:56.954Z,18.65
2022-09-07T03:24:24.583Z,16.52
2022-09-07T03:26:52.247Z,15.82
2022-09-07T03:29:20.165Z,22.60
2022-09-07T03:31:47.775Z,15.02
2022-09-07T03:34:16.901Z,14.35
2022-09-07T03:36:44.456Z,16.02
2022-09-07T03:39:13.965Z,15.52
2022-09-07T03:41:41.636Z,20.00
2022-09-07T03:44:09.223Z,22.02
2022-09-07T03:46:36.889Z,16.20
2022-09-07T03:49:04.465Z,23.60
2022-09-07T03:51:32.109Z,21.63
2022-09-07T03:54:00.409Z,17.92
2022-09-07T03:56:28.008Z,14.75
2022-09-07T03:58:55.894Z,22.02
2022-09-07T04:01:25.335Z,13.27
2022-09-07T04:04:00.034Z,19.15
2022-09-07T04:06:30.294Z,20.45
2022-09-07T04:09:02.458Z,16.52
2022-09-07T04:11:30.056Z,19.23
2022-09-07T04:13:58.065Z,13.30
2022-09-07T04:16:27.052Z,19.80
2022-09-07T04:18:54.889Z,18.85
2022-09-07T04:21:23.863Z,16.02
2022-09-07T04:23:51.858Z,14.18
2022-09-07T04:26:22.016Z,16.45
2022-09-07T04:28:50.225Z,17.60
2022-09-07T04:31:19.167Z,13.52
2022-09-07T04:33:48.500Z,17.55
2022-09-07T04:36:17.971Z,17.38
2022-09-07T04:38:46.895Z,17.33
2022-09-07T04:41:17.070Z,18.45
2022-09-07T04:43:46.215Z,20.73
2022-09-07T04:46:29.936Z,22.40
2022-09-07T04:48:59.690Z,20.75
2022-09-07T04:51:29.778Z,20.17
2022-09-07T04:53:59.628Z,22.30
2022-09-07T04:56:27.582Z,22.23
2022-09-07T04:58:55.359Z,20.92
2022-09-07T05:04:08.340Z,15.85
2022-09-07T05:06:36.102Z,21.75
2022-09-07T05:09:03.862Z,17.40
2022-09-07T05:11:31.416Z,20.88
2022-09-07T05:14:01.292Z,21.65
2022-09-07T05:16:30.770Z,20.10
2022-09-07T05:19:03.306Z,21.58
2022-09-07T05:21:34.867Z,20.83
2022-09-07T05:26:33.178Z,24.90
2022-09-07T05:31:52.151Z,23.17
2022-09-07T05:34:35.245Z,19.15
2022-09-07T05:37:03.139Z,17.45
2022-09-07T05:39:31.215Z,26.35
2022-09-07T05:41:58.841Z,18.13
2022-09-07T05:47:09.791Z,24.00
2022-09-07T05:49:37.671Z,16.65
2022-09-07T05:52:05.807Z,12.30
2022-09-07T05:54:33.385Z,16.98
2022-09-07T05:57:03.060Z,14.73
2022-09-07T05:59:30.704Z,17.83
2022-09-07T06:01:58.453Z,12.23
2022-09-07T06:04:26.204Z,10.98
2022-09-07T06:12:29.316Z,14.18
2022-09-07T06:14:56.882Z,16.85
2022-09-07T06:17:24.700Z,19.98
2022-09-07T06:19:52.334Z,18.42
2022-09-07T06:22:19.879Z,17.77
2022-09-07T06:24:47.543Z,19.40
2022-09-07T06:27:15.138Z,19.00
2022-09-07T06:29:43.005Z,17.33
2022-09-07T06:34:58.369Z,23.55
2022-09-07T06:37:26.072Z,18.40
2022-09-07T06:39:53.773Z,24.33
2022-09-07T06:42:21.469Z,21.95
2022-09-07T06:44:53.173Z,17.63
2022-09-07T06:47:20.758Z,19.27
2022-09-07T06:49:48.366Z,25.65
2022-09-07T06:52:16.107Z,20.50
2022-09-07T06:54:59.334Z,19.67
2022-09-07T06:57:27.428Z,17.30
2022-09-07T06:59:55.248Z,21.08
2022-09-07T07:02:22.787Z,21.90
2022-09-07T07:04:50.651Z,22.15
2022-09-07T07:07:18.259Z,18.90
2022-09-07T07:09:45.862Z,21.60
2022-09-07T07:12:13.515Z,18.17
2022-09-07T07:14:44.968Z,15.75
2022-09-07T07:17:13.336Z,26.23
2022-09-07T07:19:41.131Z,17.83
2022-09-07T07:22:45.603Z,15.18
2022-09-07T07:24:56.298Z,13.93
2022-09-07T07:27:23.979Z,17.80
2022-09-07T07:29:52.696Z,16.67
2022-09-07T07:32:20.281Z,13.20
2022-09-07T07:34:48.166Z,19.17
2022-09-07T07:37:16.275Z,15.15
2022-09-07T07:42:32.559Z,19.90
2022-09-07T07:47:51.542Z,15.70
2022-09-07T07:50:34.776Z,19.67
2022-09-07T07:55:51.108Z,18.48
2022-09-07T07:58:19.558Z,20.95
2022-09-07T08:00:56.031Z,16.92
2022-09-07T08:03:25.152Z,16.02
2022-09-07T08:05:53.532Z,19.95
2022-09-07T08:08:23.045Z,18.05
2022-09-07T08:10:50.867Z,24.58
2022-09-07T08:13:19.218Z,15.93
2022-09-07T08:15:47.192Z,16.52
2022-09-07T08:18:16.719Z,18.88
2022-09-07T08:20:44.434Z,23.60
2022-09-07T08:23:12.161Z,17.90
2022-09-07T08:25:48.507Z,18.23
2022-09-07T08:28:16.216Z,19.55
2022-09-07T08:30:43.801Z,17.25
2022-09-07T08:33:11.419Z,14.77
2022-09-07T08:35:39.013Z,18.98
2022-09-07T08:38:06.736Z,22.98
2022-09-07T08:40:37.777Z,19.13
2022-09-07T08:43:47.126Z,12.27
2022-09-07T08:46:40.948Z,18.67
2022-09-07T08:49:26.198Z,19.13
2022-09-07T08:52:02.864Z,15.93
2022-09-07T08:54:30.506Z,13.00
2022-09-07T09:00:14.397Z,19.92
2022-09-07T09:02:44.297Z,14.10
2022-09-07T09:05:40.074Z,13.80
2022-09-07T09:08:27.319Z,26.52
2022-09-07T09:11:03.584Z,14.55
2022-09-07T09:13:58.378Z,16.35
2022-09-07T09:16:28.795Z,17.55
2022-09-07T09:19:33.239Z,18.30
2022-09-07T09:22:19.567Z,13.55
2022-09-07T09:24:49.719Z,19.48
2022-09-07T09:27:17.323Z,17.60
2022-09-07T09:29:45.201Z,17.67
2022-09-07T09:32:52.960Z,13.25
2022-09-07T09:35:36.156Z,20.00
2022-09-07T09:38:04.225Z,19.63
2022-09-07T09:40:34.468Z,12.98
2022-09-07T09:43:21.814Z,22.88
2022-09-07T09:48:41.680Z,12.33
2022-09-07T09:54:19.528Z,19.20
2022-09-07T09:56:49.141Z,14.77
2022-09-07T10:05:32.783Z,18.57
2022-09-07T10:08:00.578Z,16.77
2022-09-07T10:10:29.627Z,17.25
2022-09-07T10:12:57.379Z,15.13
2022-09-07T10:15:40.433Z,15.93
2022-09-07T10:18:22.413Z,19.40
2022-09-07T10:20:50.052Z,15.30
2022-09-07T10:23:25.347Z,14.95
2022-09-07T10:25:52.977Z,15.10
2022-09-07T10:28:23.752Z,21.70
2022-09-07T10:31:03.778Z,12.88
2022-09-07T10:37:08.871Z,14.40
2022-09-07T10:40:02.933Z,12.65
2022-09-07T10:42:37.886Z,12.35
2022-09-07T10:45:08.202Z,12.85
2022-09-07T10:47:43.570Z,16.13
2022-09-07T10:50:23.231Z,17.55
2022-09-07T10:53:36.593Z,13.40
2022-09-07T10:56:19.301Z,13.65
2022-09-07T10:59:08.120Z,16.05
2022-09-07T11:02:02.119Z,14.25
2022-09-07T11:04:41.731Z,10.57
2022-09-07T11:07:48.275Z,13.07
2022-09-07T11:10:36.742Z,9.20
2022-09-07T11:13:06.835Z,14.20
2022-09-07T11:16:03.120Z,13.30
2022-09-07T11:18:36.638Z,14.13
2022-09-07T11:21:12.517Z,12.30
2022-09-07T11:23:43.883Z,13.20
2022-09-07T11:26:55.194Z,12.88
2022-09-07T11:32:21.819Z,10.75
2022-09-07T11:34:54.747Z,10.43
2022-09-07T11:37:46.831Z,11.82
2022-09-07T11:40:29.894Z,10.68
2022-09-07T11:43:03.665Z,12.05
2022-09-07T11:45:38.769Z,9.90
2022-09-07T11:48:29.950Z,9.57
2022-09-07T11:51:05.783Z,12.13
2022-09-07T11:53:37.710Z,10.27
2022-09-07T11:56:18.171Z,11.13
2022-09-07T11:59:03.622Z,14.77
2022-09-07T12:01:53.776Z,9.93
2022-09-07T12:04:33.685Z,9.55
2022-09-07T12:07:42.939Z,12.30
2022-09-07T12:10:34.974Z,10.77
2022-09-07T12:13:08.291Z,9.18
2022-09-07T12:15:54.323Z,12.05
2022-09-07T12:18:43.722Z,13.65
2022-09-07T12:21:36.052Z,9.25
2022-09-07T12:24:04.206Z,9.25
2022-09-07T12:26:35.475Z,11.10
2022-09-07T12:29:06.172Z,10.30
2022-09-07T12:31:58.327Z,10.98
2022-09-07T12:34:30.270Z,11.15
2022-09-07T12:37:08.910Z,9.77
2022-09-07T12:39:43.916Z,12.18
2022-09-07T12:42:32.503Z,9.13
2022-09-07T12:45:29.477Z,8.98
2022-09-07T12:47:59.557Z,9.95
2022-09-07T12:50:38.166Z,11.48
2022-09-07T12:53:34.096Z,14.85
2022-09-07T12:56:46.889Z,7.47
2022-09-07T12:59:42.599Z,12.95
2022-09-07T13:02:33.816Z,8.25
2022-09-07T13:05:10.474Z,10.05
2022-09-07T13:08:04.112Z,12.57
2022-09-07T13:10:38.103Z,10.98
2022-09-07T13:16:15.463Z,12.07
2022-09-07T13:18:44.290Z,10.70
2022-09-07T13:21:16.459Z,11.80
2022-09-07T13:27:05.979Z,9.02
2022-09-07T13:29:46.428Z,9.63
2022-09-07T13:32:20.220Z,10.48
2022-09-07T13:35:04.895Z,11.25
2022-09-07T13:37:57.880Z,9.88
2022-09-07T13:40:39.165Z,12.48
2022-09-07T13:45:45.780Z,9.20
2022-09-07T13:48:42.098Z,9.80
2022-09-07T13:51:39.674Z,8.10
2022-09-07T13:54:31.008Z,10.18
2022-09-07T13:59:51.787Z,8.25
2022-09-07T14:02:33.745Z,7.25
2022-09-07T14:05:01.872Z,10.05
2022-09-07T14:07:30.901Z,8.35
2022-09-07T14:10:21.247Z,8.25
2022-09-07T14:13:15.314Z,9.57
2022-09-07T14:15:45.925Z,9.80
2022-09-07T14:18:15.890Z,10.13
2022-09-07T14:20:50.056Z,6.85
2022-09-07T14:23:30.658Z,7.72
2022-09-07T14:26:18.234Z,9.13
2022-09-07T14:28:49.150Z,7.68
2022-09-07T14:31:19.944Z,7.80
2022-09-07T14:33:47.657Z,6.93
2022-09-07T14:36:39.419Z,7.95
2022-09-07T14:39:07.194Z,8.43
2022-09-07T14:41:38.446Z,8.45
2022-09-07T14:44:06.637Z,8.43
2022-09-07T14:46:35.022Z,10.52
2022-09-07T14:49:21.463Z,9.80
2022-09-07T14:51:50.038Z,7.55
2022-09-07T14:54:23.069Z,10.90
2022-09-07T14:57:06.011Z,8.68
2022-09-07T14:59:47.666Z,6.78
2022-09-07T15:02:24.955Z,7.72
2022-09-07T15:05:29.845Z,12.70
2022-09-07T15:08:02.759Z,8.65
2022-09-07T15:10:41.335Z,9.32
2022-09-07T15:13:32.303Z,9.05
2022-09-07T15:16:33.279Z,10.18
2022-09-07T15:19:21.226Z,8.50
2022-09-07T15:21:48.851Z,7.43
2022-09-07T15:24:16.551Z,10.55
2022-09-07T15:27:02.483Z,9.10
2022-09-07T15:29:31.099Z,7.55
2022-09-07T15:32:04.554Z,8.80
2022-09-07T15:34:36.423Z,8.45
2022-09-07T15:38:00.328Z,8.30
2022-09-07T15:39:52.811Z,6.45
2022-09-07T15:45:08.915Z,10.23
2022-09-07T15:47:48.177Z,7.85
2022-09-07T15:50:19.280Z,7.40
2022-09-07T15:52:47.066Z,14.05
2022-09-07T15:55:17.619Z,10.65
2022-09-07T15:57:51.311Z,8.63
2022-09-07T16:00:22.452Z,6.90
2022-09-07T16:03:06.737Z,8.65
2022-09-07T16:05:35.072Z,5.88
2022-09-07T16:10:55.742Z,10.55
2022-09-07T16:13:24.328Z,9.07
2022-09-07T16:15:52.192Z,10.05
2022-09-07T16:18:19.799Z,9.70
2022-09-07T16:20:47.938Z,10.35
2022-09-07T16:23:19.805Z,9.70
2022-09-07T16:25:58.351Z,7.25
2022-09-07T16:28:26.929Z,7.97
2022-09-07T16:30:55.967Z,7.95
2022-09-07T16:33:32.731Z,10.07
2022-09-07T16:36:16.273Z,7.78
2022-09-07T16:38:48.172Z,7.80
2022-09-07T16:41:26.720Z,13.13
2022-09-07T16:43:54.938Z,11.55
2022-09-07T16:46:25.544Z,11.77
2022-09-07T16:48:53.879Z,10.33
2022-09-07T16:51:22.829Z,10.95
2022-09-07T16:53:53.202Z,11.23
2022-09-07T16:56:23.744Z,7.55
2022-09-07T16:58:54.321Z,11.15
2022-09-07T17:01:24.943Z,8.38
2022-09-07T17:03:53.020Z,9.27
2022-09-07T17:06:22.465Z,8.68
2022-09-07T17:08:50.062Z,5.47
2022-09-07T17:11:21.498Z,8.73
2022-09-07T17:13:50.226Z,7.95
2022-09-07T17:16:23.580Z,7.85
2022-09-07T17:21:40.192Z,9.15
2022-09-07T17:24:09.983Z,9.55
2022-09-07T17:26:38.423Z,7.32
2022-09-07T17:29:07.325Z,5.55
2022-09-07T17:34:25.047Z,6.75
2022-09-07T17:36:52.610Z,6.25
2022-09-07T17:39:20.302Z,9.40
2022-09-07T17:41:52.577Z,6.85
2022-09-07T17:44:21.771Z,7.45
2022-09-07T17:46:49.521Z,9.88
2022-09-07T17:49:17.686Z,8.95
2022-09-07T17:51:45.519Z,9.63
2022-09-07T17:54:15.908Z,5.82
2022-09-07T17:56:44.270Z,6.83
2022-09-07T18:02:00.977Z,8.40
2022-09-07T18:04:28.945Z,8.00
2022-09-07T18:06:56.637Z,7.45
2022-09-07T18:09:24.359Z,6.13
2022-09-07T18:11:51.888Z,7.10
2022-09-07T18:14:19.697Z,5.93
2022-09-07T18:16:49.829Z,8.07
2022-09-07T18:19:18.946Z,9.65
2022-09-07T18:21:48.133Z,9.30
2022-09-07T18:24:19.291Z,12.32
2022-09-07T18:26:50.385Z,8.10
2022-09-07T18:29:36.864Z,8.63
2022-09-07T18:32:09.512Z,7.68
2022-09-07T18:34:40.672Z,12.25
2022-09-07T18:37:08.582Z,11.10
2022-09-07T18:39:36.632Z,8.43
2022-09-07T18:42:04.589Z,10.90
2022-09-07T18:47:28.084Z,8.85
2022-09-07T18:49:57.116Z,11.93
2022-09-07T18:55:12.619Z,11.25
2022-09-07T18:57:40.642Z,7.85
2022-09-07T19:00:09.942Z,12.48
2022-09-07T19:02:37.840Z,10.35
2022-09-07T19:07:54.430Z,12.55
2022-09-07T19:10:23.149Z,7.63
2022-09-07T19:12:50.945Z,10.15
2022-09-07T19:15:20.487Z,11.77
2022-09-07T19:17:48.195Z,12.05
2022-09-07T19:20:16.069Z,13.82
2022-09-07T19:22:43.889Z,11.20
2022-09-07T19:25:11.648Z,12.38
2022-09-07T19:27:39.497Z,19.50
2022-09-07T19:30:08.105Z,12.52
2022-09-07T19:32:37.405Z,13.63
2022-09-07T19:35:05.424Z,13.07
2022-09-07T19:37:34.503Z,16.73
2022-09-07T19:40:02.469Z,11.80
2022-09-07T19:42:30.199Z,14.18
2022-09-07T19:44:58.416Z,12.60
2022-09-07T19:47:26.223Z,11.98
2022-09-07T19:49:54.145Z,12.25
2022-09-07T19:52:23.653Z,10.10
2022-09-07T19:54:51.273Z,10.43
2022-09-07T19:57:18.911Z,8.98
2022-09-07T19:59:47.646Z,9.05
2022-09-07T20:02:15.295Z,11.85
2022-09-07T20:04:42.875Z,9.32
2022-09-07T20:07:11.583Z,9.52
2022-09-07T20:09:39.293Z,8.80
2022-09-07T20:12:08.359Z,9.10
2022-09-07T20:14:35.912Z,13.60
2022-09-07T20:17:03.735Z,12.18
2022-09-07T20:19:31.288Z,9.48
2022-09-07T20:21:58.910Z,11.98
2022-09-07T20:24:26.542Z,13.50
2022-09-07T20:26:54.277Z,12.02
2022-09-07T20:29:29.485Z,10.07
2022-09-07T20:32:00.971Z,9.40
2022-09-07T20:34:29.425Z,8.30
2022-09-07T20:36:57.193Z,11.38
2022-09-07T20:39:25.428Z,14.32
2022-09-07T20:41:53.031Z,10.68
2022-09-07T20:44:20.745Z,11.63
2022-09-07T20:46:48.599Z,11.85
2022-09-07T20:49:16.255Z,10.48
2022-09-07T20:51:43.784Z,10.32
2022-09-07T20:54:11.787Z,10.00
2022-09-07T20:56:39.464Z,10.38
2022-09-07T20:59:07.069Z,11.55
2022-09-07T21:01:35.318Z,9.60
2022-09-07T21:04:04.123Z,13.18
2022-09-07T21:06:33.019Z,8.90
2022-09-07T21:09:00.895Z,9.48
2022-09-07T21:11:31.865Z,9.63
2022-09-07T21:14:01.699Z,11.88
2022-09-07T21:16:30.227Z,9.00
2022-09-07T21:18:59.897Z,8.07
2022-09-07T21:21:28.888Z,7.85
2022-09-07T21:23:57.837Z,11.15
2022-09-07T21:26:27.459Z,8.00
2022-09-07T21:29:07.994Z,11.48
2022-09-07T21:31:35.576Z,11.73
2022-09-07T21:34:03.212Z,10.73
2022-09-07T21:36:31.307Z,8.70
2022-09-07T21:38:58.867Z,13.75
2022-09-07T21:41:26.614Z,13.40
2022-09-07T21:44:01.502Z,8.82
2022-09-07T21:46:31.740Z,11.90
2022-09-07T21:49:00.338Z,9.90
2022-09-07T21:51:28.938Z,13.63
2022-09-07T21:53:59.386Z,10.57
2022-09-07T21:56:28.837Z,9.35
2022-09-07T21:58:58.457Z,10.43
2022-09-07T22:01:27.671Z,13.75
2022-09-07T22:03:58.057Z,14.70
2022-09-07T22:06:27.967Z,12.88
2022-09-07T22:08:56.309Z,12.55
2022-09-07T22:11:25.994Z,14.43
2022-09-07T22:13:55.913Z,8.68
2022-09-07T22:16:23.797Z,12.48
2022-09-07T22:18:52.076Z,11.98
2022-09-07T22:21:24.240Z,12.63
2022-09-07T22:23:56.672Z,13.57
2022-09-07T22:26:28.004Z,14.32
2022-09-07T22:28:56.701Z,9.00
2022-09-07T22:31:30.790Z,13.00
2022-09-07T22:33:59.428Z,12.63
2022-09-07T22:36:30.165Z,14.05
2022-09-07T22:39:00.122Z,16.80
2022-09-07T22:41:30.738Z,14.35
2022-09-07T22:43:58.594Z,13.50
2022-09-07T22:46:28.681Z,17.00
2022-09-07T22:48:57.925Z,13.07
2022-09-07T22:51:26.745Z,13.13
2022-09-07T22:53:55.763Z,10.40
2022-09-07T22:56:26.963Z,13.05
2022-09-07T23:01:28.941Z,14.77
2022-09-07T23:03:57.662Z,16.60
2022-09-07T23:06:28.557Z,15.85
2022-09-07T23:08:57.635Z,11.38
2022-09-07T23:11:26.917Z,12.77
2022-09-07T23:13:58.865Z,14.57
2022-09-07T23:16:28.019Z,15.05
2022-09-07T23:18:57.674Z,14.93
2022-09-07T23:21:26.222Z,15.40
2022-09-07T23:23:56.730Z,18.52
2022-09-07T23:26:26.428Z,17.52
2022-09-07T23:28:56.051Z,16.73
2022-09-07T23:31:24.980Z,12.80
2022-09-07T23:33:52.659Z,14.00
2022-09-07T23:36:20.358Z,13.02
2022-09-07T23:38:48.588Z,14.95
2022-09-07T23:41:19.831Z,18.05
2022-09-07T23:43:48.385Z,17.73
2022-09-07T23:46:16.509Z,15.82
2022-09-07T23:48:45.703Z,15.88
2022-09-07T23:51:13.757Z,15.93
2022-09-07T23:53:41.811Z,14.05
2022-09-07T23:56:09.513Z,18.65
2022-09-07T23:58:37.071Z,17.50
